Kinaros — SVAO9 — position and weather

sailwx.info

Track history (hours):
 
Tides and Currents Weather Stations Pressure Air Temp Water Temp Dewpoint Dewpoint Depression Visibility Wind Speed Wind Dir Waves Ship Positions

Kinaros

Last reported at 2017-Oct-25 08:05 UTC. Time now 2017-Nov-18 21:52 UTC.
Position N 16°45' W 060°58'.
Warning: this ship's position is 24 days out of date.

Length 183 m; draft 8.2 m.

Type: Ship. MMSI: 240904000.

Date/timePositionNaut miles runAvg speedWind from/ knotsBaromVisibWave heightAir tempDewpointWater temp
2017-Oct-25 08:05N 16°45' W 060°58'210.8
2017-Oct-25 07:53N 16°45' W 061°01'410.7
2017-Oct-25 07:30N 16°45' W 061°05'510.5
2017-Oct-25 06:59N 16°45' W 061°11'510.6
2017-Oct-25 06:30N 16°45' W 061°16'510.4
2017-Oct-25 06:01N 16°45' W 061°21'510.3
2017-Oct-25 05:31N 16°45' W 061°27'510.5
2017-Oct-25 05:00N 16°44' W 061°32'510.4
2017-Oct-25 04:31N 16°42' W 061°37'510.6
2017-Oct-25 04:00N 16°41' W 061°43'510.7
2017-Oct-25 03:31N 16°40' W 061°48'510.7
2017-Oct-25 03:00N 16°39' W 061°53'510.5
2017-Oct-25 02:31N 16°37' W 061°59'510.4
2017-Oct-25 02:01N 16°36' W 062°04'510.6
2017-Oct-25 01:30N 16°34' W 062°09'510.6
2017-Oct-25 01:00N 16°32' W 062°14'5 9.8
2017-Oct-25 00:31N 16°32' W 062°19'510.0
2017-Oct-25 00:01N 16°33' W 062°24'510.0
2017-Oct-24 23:30N 16°33' W 062°30'510.5
2017-Oct-24 23:00N 16°34' W 062°35'510.5
2017-Oct-24 22:30N 16°34' W 062°40'510.3
2017-Oct-24 22:00N 16°35' W 062°46'  
Track history (hours):
 
Tides and Currents Weather Stations Pressure Air Temp Water Temp Dewpoint Dewpoint Depression Visibility Wind Speed Wind Dir Waves Ship Positions

Kinaros

Last reported at 2017-Oct-25 08:05 UTC. Time now 2017-Nov-18 21:52 UTC.
Position N 16°45' W 060°58'.
Warning: this ship's position is 24 days out of date.

Length 183 m; draft 8.2 m.

Type: Ship. MMSI: 240904000.

Date/timePositionNaut miles runAvg speedWind from/ knotsBaromVisibWave heightAir tempDewpointWater temp
2017-Oct-25 08:05N 16°45' W 060°58'210.8
2017-Oct-25 07:53N 16°45' W 061°01'410.7
2017-Oct-25 07:30N 16°45' W 061°05'510.5
2017-Oct-25 06:59N 16°45' W 061°11'510.6
2017-Oct-25 06:30N 16°45' W 061°16'510.4
2017-Oct-25 06:01N 16°45' W 061°21'510.3
2017-Oct-25 05:31N 16°45' W 061°27'510.5
2017-Oct-25 05:00N 16°44' W 061°32'510.4
2017-Oct-25 04:31N 16°42' W 061°37'510.6
2017-Oct-25 04:00N 16°41' W 061°43'510.7
2017-Oct-25 03:31N 16°40' W 061°48'510.7
2017-Oct-25 03:00N 16°39' W 061°53'510.5
2017-Oct-25 02:31N 16°37' W 061°59'510.4
2017-Oct-25 02:01N 16°36' W 062°04'510.6
2017-Oct-25 01:30N 16°34' W 062°09'510.6
2017-Oct-25 01:00N 16°32' W 062°14'5 9.8
2017-Oct-25 00:31N 16°32' W 062°19'510.0
2017-Oct-25 00:01N 16°33' W 062°24'510.0
2017-Oct-24 23:30N 16°33' W 062°30'510.5
2017-Oct-24 23:00N 16°34' W 062°35'510.5
2017-Oct-24 22:30N 16°34' W 062°40'510.3
2017-Oct-24 22:00N 16°35' W 062°46'  

Dump ship's entire track history